Aeroporto :
LOGIN :

Iscrizione | Disclaimer

   EN    FR    IT 

 










Sommario :    VFR   VFR Marginale   IFR   IFR Intensivo   IFR Molto Intensivo
Visibilità : 
Base nubi : 
>= 8 km
>= 3000ft
5 / 8 km
1000 / 3000 ft
1500m / 5 km
500 / 1000 ft
800 / 1500m
200 / 500 ft
< 800m
< 200 ft
Simboli :   Temporali  Nebbia  Neve Forte  Precipitazioni Forti  Vento > 20 kt
SIGMETs :   Varie  Temporali  Ghiacco  Turbolenza  Onda orograficha  Ceneri Vulcaniche






- Altitudine del aeroporto : 220 ft
- Codice IATA : CWL


EGFF - Cardiff Rhoose

ULTIMO METAR :
  • 192320Z AUTO 31003KT 9999 NCD 03/02 Q1049

METARs OBSOLETI :
  • 192250Z AUTO VRB01KT 9999 NCD 02/01 Q1049
  • 192220Z AUTO 35003KT 9999 NCD 02/01 Q1049
  • 192150Z AUTO 34002KT 9999 NCD 02/02 Q1048
  • 192120Z AUTO 35004KT 9999 NCD 02/01 Q1049
  • 192050Z AUTO 34005KT 9999 NCD 02/01 Q1049

TAF TAF EGFF
Valido dal 20 a 00 ore il 21 a 00 ore UTC


192302Z 2000/2024 VRB02KT CAVOK
PROB30
TEMPO 2000/2010 3000 MIFG BR
PROB30 2020/2024 7000
ATIS : +44 1446 729 319



MetMap, La meteo Aeronautica in un colpo d'occhio ! - Copyright ORBIFLY Dicembre 2007 - Disclaimer

ORBIFLY MET'MAP TEAM :

Programmazione e sviluppo : Alexandra Zaïnal
Concezione : Baudouin d'Aumeries
Aiuto per la programmazione : Marc-Olivier Méhu
Supporto tecnico e logistico : Manuel Goepfert
Aiuto per la traduzione : Arnaldo La Scala

Contatto : metmap@orbifly.com




FONTI E CREDITI :

   NOAA